createdAt,value
2022-11-25T00:01:09.986Z,37.27
2022-11-25T00:03:36.738Z,31.63
2022-11-25T00:06:13.429Z,38.13
2022-11-25T00:08:41.610Z,47.73
2022-11-25T00:11:08.948Z,38.03
2022-11-25T00:13:36.257Z,43.83
2022-11-25T00:16:07.999Z,42.03
2022-11-25T00:18:34.876Z,34.53
2022-11-25T00:21:12.467Z,41.20
2022-11-25T00:23:39.074Z,52.07
2022-11-25T00:26:10.250Z,45.90
2022-11-25T00:28:38.404Z,62.10
2022-11-25T00:31:09.473Z,57.50
2022-11-25T00:33:36.356Z,67.63
2022-11-25T00:36:04.315Z,68.33
2022-11-25T00:38:30.781Z,67.83
2022-11-25T00:41:15.855Z,90.13
2022-11-25T00:44:00.990Z,73.77
2022-11-25T00:46:27.459Z,62.83
2022-11-25T00:48:53.912Z,72.53
2022-11-25T00:51:20.340Z,62.80
2022-11-25T00:53:46.763Z,59.70
2022-11-25T00:56:13.206Z,56.20
2022-11-25T00:58:40.570Z,53.03
2022-11-25T01:01:07.079Z,59.83
2022-11-25T01:03:34.941Z,46.57
2022-11-25T01:06:02.172Z,68.07
2022-11-25T01:08:33.323Z,67.97
2022-11-25T01:11:00.734Z,77.93
2022-11-25T01:13:27.303Z,57.63
2022-11-25T01:15:53.788Z,51.43
2022-11-25T01:18:20.340Z,59.07
2022-11-25T01:20:46.807Z,50.73
2022-11-25T01:23:13.290Z,89.90
2022-11-25T01:25:40.268Z,60.60
2022-11-25T01:28:06.711Z,70.10
2022-11-25T01:30:35.919Z,53.47
2022-11-25T01:33:06.231Z,47.67
2022-11-25T01:35:32.693Z,45.63
2022-11-25T01:37:59.110Z,56.03
2022-11-25T01:40:25.584Z,61.33
2022-11-25T01:42:52.017Z,66.03
2022-11-25T01:45:28.374Z,57.07
2022-11-25T01:47:58.796Z,52.50
2022-11-25T01:50:26.479Z,63.50
2022-11-25T01:52:53.929Z,45.80
2022-11-25T01:55:27.075Z,53.67
2022-11-25T01:58:17.851Z,45.67
2022-11-25T02:00:51.463Z,46.90
2022-11-25T02:03:26.048Z,38.50
2022-11-25T02:06:17.737Z,38.40
2022-11-25T02:08:48.533Z,58.87
2022-11-25T02:11:16.182Z,52.27
2022-11-25T02:13:43.521Z,49.63
2022-11-25T02:16:09.987Z,96.77
2022-11-25T02:18:36.462Z,74.87
2022-11-25T02:21:02.955Z,46.23
2022-11-25T02:23:36.187Z,46.97
2022-11-25T02:26:02.972Z,76.63
2022-11-25T02:28:31.547Z,62.83
2022-11-25T02:30:58.588Z,64.93
2022-11-25T02:33:25.918Z,50.57
2022-11-25T02:35:59.357Z,46.87
2022-11-25T02:38:46.018Z,46.53
2022-11-25T02:41:21.508Z,44.77
2022-11-25T02:43:48.331Z,59.83
2022-11-25T02:46:21.804Z,43.87
2022-11-25T02:51:35.699Z,52.93
2022-11-25T02:54:02.329Z,59.33
2022-11-25T02:56:31.689Z,42.43
2022-11-25T02:58:58.645Z,47.50
2022-11-25T03:01:25.219Z,43.63
2022-11-25T03:03:51.742Z,51.77
2022-11-25T03:06:18.512Z,40.63
2022-11-25T03:08:45.026Z,48.27
2022-11-25T03:11:11.493Z,48.90
2022-11-25T03:13:37.947Z,43.27
2022-11-25T03:16:04.827Z,48.90
2022-11-25T03:18:31.330Z,43.27
2022-11-25T03:20:57.776Z,42.43
2022-11-25T03:23:24.803Z,42.13
2022-11-25T03:25:51.274Z,42.53
2022-11-25T03:28:17.740Z,46.17
2022-11-25T03:30:44.320Z,43.43
2022-11-25T03:33:11.048Z,45.60
2022-11-25T03:35:37.549Z,42.77
2022-11-25T03:38:04.119Z,41.97
2022-11-25T03:40:30.557Z,46.23
2022-11-25T03:42:57.008Z,34.83
2022-11-25T03:45:23.438Z,45.27
2022-11-25T03:47:49.962Z,34.13
2022-11-25T03:50:16.728Z,54.27
2022-11-25T03:52:43.224Z,45.53
2022-11-25T03:55:10.183Z,52.17
2022-11-25T03:57:36.670Z,44.10
2022-11-25T04:00:04.627Z,45.13
2022-11-25T04:02:31.127Z,52.00
2022-11-25T04:04:57.819Z,42.83
2022-11-25T04:07:24.312Z,49.03
2022-11-25T04:09:50.832Z,48.37
2022-11-25T04:12:36.034Z,46.17
2022-11-25T04:15:03.034Z,49.67
2022-11-25T04:17:29.495Z,45.37
2022-11-25T04:19:55.944Z,46.60
2022-11-25T04:22:22.410Z,42.77
2022-11-25T04:24:48.896Z,44.43
2022-11-25T04:27:15.350Z,41.07
2022-11-25T04:29:41.780Z,44.57
2022-11-25T04:32:08.230Z,41.60
2022-11-25T04:34:34.998Z,44.63
2022-11-25T04:37:01.592Z,42.77
2022-11-25T04:39:28.020Z,41.07
2022-11-25T04:42:17.343Z,44.23
2022-11-25T04:44:55.903Z,42.37
2022-11-25T04:47:30.382Z,52.63
2022-11-25T04:49:56.812Z,43.83
2022-11-25T04:52:23.338Z,45.50
2022-11-25T04:54:49.800Z,40.27
2022-11-25T04:57:16.806Z,49.43
2022-11-25T04:59:43.744Z,39.87
2022-11-25T05:02:17.855Z,51.83
2022-11-25T05:04:45.742Z,45.93
2022-11-25T05:07:13.255Z,50.27
2022-11-25T05:09:40.036Z,60.33
2022-11-25T05:12:07.976Z,50.10
2022-11-25T05:14:35.894Z,59.27
2022-11-25T05:17:03.902Z,58.73
2022-11-25T05:19:30.437Z,64.13
2022-11-25T05:21:56.870Z,47.60
2022-11-25T05:24:24.333Z,64.90
2022-11-25T05:26:50.808Z,64.17
2022-11-25T05:29:17.364Z,67.20
2022-11-25T05:31:43.808Z,61.67
2022-11-25T05:34:10.312Z,71.33
2022-11-25T05:36:37.011Z,55.90
2022-11-25T05:39:04.172Z,57.23
2022-11-25T05:41:30.652Z,52.27
2022-11-25T05:43:57.214Z,54.87
2022-11-25T05:46:23.694Z,57.77
2022-11-25T05:48:53.655Z,55.43
2022-11-25T05:51:20.170Z,67.00
2022-11-25T05:53:46.661Z,51.33
2022-11-25T05:56:13.111Z,53.70
2022-11-25T05:58:39.643Z,63.30
2022-11-25T06:01:10.835Z,61.20
2022-11-25T06:03:37.751Z,75.17
2022-11-25T06:06:05.398Z,58.17
2022-11-25T06:08:32.358Z,49.63
2022-11-25T06:10:58.814Z,55.50
2022-11-25T06:13:25.772Z,53.63
2022-11-25T06:15:52.285Z,66.10
2022-11-25T06:18:19.169Z,61.43
2022-11-25T06:20:45.932Z,65.67
2022-11-25T06:23:12.362Z,66.77
2022-11-25T06:25:38.835Z,67.77
2022-11-25T06:28:12.683Z,57.87
2022-11-25T06:30:39.875Z,56.70
2022-11-25T06:33:06.318Z,52.97
2022-11-25T06:35:32.761Z,61.80
2022-11-25T06:37:59.774Z,65.83
2022-11-25T06:40:26.261Z,59.33
2022-11-25T06:42:52.774Z,51.03
2022-11-25T06:45:19.302Z,57.93
2022-11-25T06:47:45.755Z,54.43
2022-11-25T06:50:12.287Z,65.90
2022-11-25T06:52:38.755Z,68.10
2022-11-25T06:55:05.577Z,55.30
2022-11-25T06:57:32.131Z,51.07
2022-11-25T06:59:58.656Z,62.57
2022-11-25T07:02:25.103Z,48.03
2022-11-25T07:04:51.656Z,51.40
2022-11-25T07:07:18.208Z,46.33
2022-11-25T07:09:44.839Z,47.97
2022-11-25T07:12:12.410Z,47.47
2022-11-25T07:14:39.206Z,54.50
2022-11-25T07:17:11.530Z,46.97
2022-11-25T07:19:38.613Z,36.60
2022-11-25T07:22:05.087Z,57.17
2022-11-25T07:24:31.563Z,41.57
2022-11-25T07:26:58.050Z,61.20
2022-11-25T07:32:11.355Z,47.83
2022-11-25T07:34:38.164Z,69.50
2022-11-25T07:37:04.600Z,52.10
2022-11-25T07:39:31.138Z,45.73
2022-11-25T07:41:57.559Z,46.23
2022-11-25T07:44:24.012Z,36.00
2022-11-25T07:46:51.399Z,40.30
2022-11-25T07:49:20.949Z,58.47
2022-11-25T07:51:48.924Z,43.93
2022-11-25T07:54:15.540Z,43.43
2022-11-25T07:56:44.861Z,39.57
2022-11-25T07:59:21.775Z,41.57
2022-11-25T08:01:55.523Z,38.23
2022-11-25T08:04:22.636Z,44.87
2022-11-25T08:06:51.419Z,36.97
2022-11-25T08:09:20.863Z,37.37
2022-11-25T08:11:48.312Z,43.63
2022-11-25T08:14:15.465Z,42.53
2022-11-25T08:16:42.345Z,37.93
2022-11-25T08:19:11.929Z,37.23
2022-11-25T08:21:38.433Z,48.53
2022-11-25T08:24:05.383Z,41.40
2022-11-25T08:26:36.280Z,38.37
2022-11-25T08:29:04.171Z,36.73
2022-11-25T08:31:33.702Z,40.00
2022-11-25T08:34:00.560Z,35.67
2022-11-25T08:36:28.055Z,35.67
2022-11-25T08:38:57.794Z,39.87
2022-11-25T08:41:27.101Z,37.90
2022-11-25T08:43:53.576Z,36.97
2022-11-25T08:46:22.605Z,33.67
2022-11-25T08:48:49.159Z,30.80
2022-11-25T08:51:18.417Z,30.03
2022-11-25T08:53:45.846Z,30.40
2022-11-25T08:56:12.654Z,36.40
2022-11-25T08:58:39.430Z,30.77
2022-11-25T09:01:07.482Z,37.47
2022-11-25T09:03:43.151Z,29.93
2022-11-25T09:06:10.546Z,30.93
2022-11-25T09:08:37.769Z,35.70
2022-11-25T09:11:04.453Z,37.67
2022-11-25T09:13:30.988Z,30.20
2022-11-25T09:15:57.994Z,30.00
2022-11-25T09:18:26.287Z,32.00
2022-11-25T09:20:54.003Z,26.43
2022-11-25T09:23:20.802Z,32.63
2022-11-25T09:25:54.805Z,24.90
2022-11-25T09:28:22.202Z,29.83
2022-11-25T09:30:49.032Z,40.90
2022-11-25T09:33:15.708Z,27.63
2022-11-25T09:35:42.483Z,39.63
2022-11-25T09:38:09.066Z,25.37
2022-11-25T09:40:53.880Z,31.27
2022-11-25T09:44:11.927Z,29.53
2022-11-25T09:46:47.264Z,28.13
2022-11-25T09:49:32.599Z,29.90
2022-11-25T09:52:37.075Z,24.50
2022-11-25T09:55:17.016Z,26.63
2022-11-25T09:57:49.436Z,22.53
2022-11-25T10:00:19.776Z,25.77
2022-11-25T10:03:01.656Z,29.47
2022-11-25T10:05:34.130Z,28.80
2022-11-25T10:08:07.612Z,27.97
2022-11-25T10:10:46.224Z,22.97
2022-11-25T10:13:21.166Z,29.70
2022-11-25T10:15:50.280Z,30.67
2022-11-25T10:18:34.947Z,23.03
2022-11-25T10:21:01.431Z,38.90
2022-11-25T10:23:32.456Z,34.20
2022-11-25T10:26:10.615Z,25.83
2022-11-25T10:28:38.171Z,28.07
2022-11-25T10:31:11.373Z,26.93
2022-11-25T10:33:41.209Z,38.23
2022-11-25T10:36:11.539Z,39.80
2022-11-25T10:38:45.385Z,30.43
2022-11-25T10:41:16.439Z,32.40
2022-11-25T10:43:43.576Z,40.20
2022-11-25T10:47:11.527Z,52.20
2022-11-25T10:49:31.102Z,35.30
2022-11-25T10:51:57.921Z,35.10
2022-11-25T10:54:27.829Z,38.13
2022-11-25T10:56:57.765Z,25.17
2022-11-25T10:59:25.600Z,88.00
2022-11-25T11:01:53.428Z,54.13
2022-11-25T11:04:20.500Z,72.50
2022-11-25T11:06:49.742Z,35.67
2022-11-25T11:09:33.296Z,29.87
2022-11-25T11:12:27.242Z,26.73
2022-11-25T11:14:55.011Z,29.13
2022-11-25T11:17:34.753Z,31.63
2022-11-25T11:20:04.758Z,28.97
2022-11-25T11:22:32.143Z,30.17
2022-11-25T11:25:29.282Z,27.77
2022-11-25T11:27:56.003Z,37.07
2022-11-25T11:30:28.556Z,32.50
2022-11-25T11:33:02.260Z,25.37
2022-11-25T11:35:53.964Z,28.47
2022-11-25T11:38:27.924Z,29.57
2022-11-25T11:41:00.682Z,28.67
2022-11-25T11:43:48.370Z,33.00
2022-11-25T11:46:37.574Z,26.07
2022-11-25T11:49:41.645Z,29.53
2022-11-25T11:52:43.600Z,27.43
2022-11-25T11:55:45.329Z,29.27
2022-11-25T11:58:21.468Z,28.37
2022-11-25T12:01:07.637Z,27.47
2022-11-25T12:03:39.976Z,28.57
2022-11-25T12:06:06.755Z,25.23
2022-11-25T12:08:51.882Z,37.37
2022-11-25T12:11:23.004Z,30.37
2022-11-25T12:14:11.539Z,31.50
2022-11-25T12:16:43.188Z,24.70
2022-11-25T12:19:31.134Z,28.63
2022-11-25T12:22:08.822Z,33.43
2022-11-25T12:24:58.770Z,37.00
2022-11-25T12:27:47.384Z,38.47
2022-11-25T12:30:19.685Z,29.33
2022-11-25T12:33:04.590Z,30.70
2022-11-25T12:35:37.584Z,42.07
2022-11-25T12:38:18.156Z,29.40
2022-11-25T12:40:54.407Z,30.93
2022-11-25T12:43:39.539Z,28.77
2022-11-25T12:46:18.043Z,35.93
2022-11-25T12:48:44.893Z,43.63
2022-11-25T12:51:20.498Z,37.37
2022-11-25T12:54:17.907Z,36.17
2022-11-25T12:57:07.089Z,40.20
2022-11-25T13:00:06.046Z,34.10
2022-11-25T13:02:54.018Z,31.33
2022-11-25T13:05:54.119Z,27.13
2022-11-25T13:08:38.821Z,32.07
2022-11-25T13:11:11.645Z,34.87
2022-11-25T13:13:47.584Z,44.30
2022-11-25T13:16:14.909Z,47.73
2022-11-25T13:18:44.437Z,50.53
2022-11-25T13:21:13.351Z,45.90
2022-11-25T13:23:52.917Z,43.33
2022-11-25T13:26:28.700Z,54.57
2022-11-25T13:28:56.247Z,37.20
2022-11-25T13:31:25.181Z,35.83
2022-11-25T13:34:30.284Z,42.40
2022-11-25T13:36:58.482Z,33.33
2022-11-25T13:39:33.482Z,39.47
2022-11-25T13:42:10.982Z,40.67
2022-11-25T13:44:50.385Z,38.80
2022-11-25T13:47:35.620Z,38.07
2022-11-25T13:50:04.656Z,34.67
2022-11-25T13:52:35.345Z,37.70
2022-11-25T13:55:29.140Z,24.83
2022-11-25T13:58:10.971Z,39.30
2022-11-25T14:00:37.395Z,38.23
2022-11-25T14:03:19.197Z,38.87
2022-11-25T14:05:57.827Z,40.80
2022-11-25T14:08:43.547Z,39.37
2022-11-25T14:11:09.957Z,31.10
2022-11-25T14:13:58.615Z,39.30
2022-11-25T14:16:43.821Z,29.27
2022-11-25T14:19:50.657Z,34.73
2022-11-25T14:22:35.723Z,28.13
2022-11-25T14:25:19.833Z,31.73
2022-11-25T14:27:49.087Z,34.13
2022-11-25T14:30:17.068Z,32.33
2022-11-25T14:32:57.619Z,35.57
2022-11-25T14:35:32.725Z,30.23
2022-11-25T14:38:44.576Z,46.40
2022-11-25T14:41:23.968Z,31.80
2022-11-25T14:44:04.127Z,31.80
2022-11-25T14:46:30.667Z,44.13
2022-11-25T14:48:59.308Z,40.43
2022-11-25T14:51:27.693Z,35.73
2022-11-25T14:53:54.738Z,33.97
2022-11-25T14:56:24.460Z,49.27
2022-11-25T14:58:52.189Z,41.70
2022-11-25T15:01:28.499Z,30.73
2022-11-25T15:04:19.499Z,39.00
2022-11-25T15:06:57.779Z,49.63
2022-11-25T15:09:25.498Z,41.73
2022-11-25T15:12:16.839Z,56.07
2022-11-25T15:14:48.947Z,55.87
2022-11-25T15:17:28.349Z,60.10
2022-11-25T15:19:57.616Z,49.23
2022-11-25T15:22:24.738Z,38.40
2022-11-25T15:24:55.913Z,40.47
2022-11-25T15:27:28.434Z,36.77
2022-11-25T15:29:56.040Z,59.27
2022-11-25T15:32:31.568Z,57.13
2022-11-25T15:34:59.975Z,55.63
2022-11-25T15:37:27.195Z,66.50
2022-11-25T15:40:31.298Z,48.73
2022-11-25T15:42:59.941Z,52.47
2022-11-25T15:45:27.612Z,79.93
2022-11-25T15:47:54.225Z,62.87
2022-11-25T15:50:25.354Z,61.23
2022-11-25T15:52:54.496Z,36.77
2022-11-25T15:55:33.123Z,61.40
2022-11-25T15:58:11.314Z,67.37
2022-11-25T16:00:38.231Z,57.27
2022-11-25T16:03:19.120Z,58.73
2022-11-25T16:05:56.543Z,60.90
2022-11-25T16:08:30.859Z,58.97
2022-11-25T16:11:00.232Z,57.20
2022-11-25T16:13:30.542Z,65.33
2022-11-25T16:16:00.138Z,58.10
2022-11-25T16:18:41.236Z,73.80
2022-11-25T16:21:10.965Z,52.83
2022-11-25T16:23:43.018Z,60.10
2022-11-25T16:26:12.434Z,73.53
2022-11-25T16:28:49.898Z,73.77
2022-11-25T16:31:17.176Z,68.47
2022-11-25T16:33:43.689Z,64.47
2022-11-25T16:36:10.138Z,68.93
2022-11-25T16:38:36.612Z,65.33
2022-11-25T16:41:20.594Z,58.57
2022-11-25T16:43:47.071Z,60.63
2022-11-25T16:46:19.037Z,99.17
2022-11-25T16:48:46.084Z,92.97
2022-11-25T16:51:24.122Z,147.33
2022-11-25T16:53:50.932Z,103.77
2022-11-25T16:56:29.729Z,87.37
2022-11-25T16:58:57.691Z,67.30
2022-11-25T17:01:27.046Z,70.00
2022-11-25T17:03:54.601Z,70.53
2022-11-25T17:06:24.280Z,96.90
2022-11-25T17:08:51.938Z,69.00
2022-11-25T17:11:27.066Z,64.27
2022-11-25T17:13:54.403Z,75.90
2022-11-25T17:16:23.881Z,76.77
2022-11-25T17:18:52.598Z,69.70
2022-11-25T17:21:19.054Z,63.77
2022-11-25T17:23:49.175Z,61.07
2022-11-25T17:26:24.744Z,86.67
2022-11-25T17:28:58.399Z,81.73
2022-11-25T17:31:27.458Z,62.90
2022-11-25T17:33:54.063Z,55.30
2022-11-25T17:36:21.234Z,64.90
2022-11-25T17:38:48.370Z,78.40
2022-11-25T17:41:16.622Z,58.50
2022-11-25T17:43:44.468Z,83.90
2022-11-25T17:46:11.962Z,117.70
2022-11-25T17:48:39.340Z,79.83
2022-11-25T17:51:07.578Z,159.20
2022-11-25T17:53:37.880Z,85.47
2022-11-25T17:56:26.525Z,84.40
2022-11-25T17:58:53.149Z,178.43
2022-11-25T18:01:19.718Z,92.50
2022-11-25T18:03:46.332Z,72.53
2022-11-25T18:06:12.812Z,63.30
2022-11-25T18:08:39.333Z,67.93
2022-11-25T18:11:06.726Z,65.47
2022-11-25T18:13:39.695Z,70.53
2022-11-25T18:16:07.776Z,57.13
2022-11-25T18:18:34.497Z,68.27
2022-11-25T18:21:02.438Z,67.77
2022-11-25T18:23:28.918Z,88.83
2022-11-25T18:25:56.734Z,66.93
2022-11-25T18:28:27.005Z,60.53
2022-11-25T18:30:55.880Z,58.03
2022-11-25T18:33:22.462Z,60.23
2022-11-25T18:35:48.874Z,54.83
2022-11-25T18:38:15.583Z,75.33
2022-11-25T18:40:46.395Z,67.77
2022-11-25T18:43:18.215Z,83.17
2022-11-25T18:45:45.027Z,61.13
2022-11-25T18:48:15.240Z,61.70
2022-11-25T18:50:42.410Z,48.17
2022-11-25T18:53:08.855Z,51.20
2022-11-25T18:55:35.404Z,52.37
2022-11-25T18:58:02.589Z,63.53
2022-11-25T19:00:32.662Z,66.43
2022-11-25T19:02:59.861Z,60.27
2022-11-25T19:05:30.121Z,89.73
2022-11-25T19:07:57.022Z,79.83
2022-11-25T19:10:32.051Z,54.67
2022-11-25T19:13:01.581Z,61.90
2022-11-25T19:15:28.205Z,75.13
2022-11-25T19:18:00.780Z,86.43
2022-11-25T19:20:28.555Z,59.10
2022-11-25T19:23:00.303Z,69.20
2022-11-25T19:25:27.307Z,91.67
2022-11-25T19:27:56.789Z,65.50
2022-11-25T19:30:26.181Z,63.27
2022-11-25T19:32:54.865Z,66.33
2022-11-25T19:35:33.659Z,61.67
2022-11-25T19:38:00.128Z,68.17
2022-11-25T19:40:26.661Z,61.57
2022-11-25T19:42:53.140Z,71.50
2022-11-25T19:45:20.743Z,82.73
2022-11-25T19:47:49.943Z,65.53
2022-11-25T19:50:22.537Z,68.90
2022-11-25T19:52:49.881Z,70.70
2022-11-25T19:55:24.667Z,75.20
2022-11-25T19:57:51.495Z,80.13
2022-11-25T20:00:19.630Z,98.30
2022-11-25T20:02:46.939Z,62.60
2022-11-25T20:05:19.800Z,66.20
2022-11-25T20:07:47.130Z,74.53
2022-11-25T20:10:40.106Z,101.33
2022-11-25T20:13:06.671Z,73.77
2022-11-25T20:15:33.127Z,88.10
2022-11-25T20:18:00.776Z,76.33
2022-11-25T20:20:28.927Z,92.87
2022-11-25T20:22:59.645Z,81.87
2022-11-25T20:25:26.758Z,78.87
2022-11-25T20:27:53.832Z,72.47
2022-11-25T20:30:25.909Z,111.67
2022-11-25T20:32:52.504Z,99.87
2022-11-25T20:35:19.415Z,85.07
2022-11-25T20:37:53.980Z,142.80
2022-11-25T20:40:23.748Z,85.93
2022-11-25T20:42:50.582Z,102.07
2022-11-25T20:45:22.074Z,135.03
2022-11-25T20:47:50.910Z,140.17
2022-11-25T20:50:19.148Z,82.73
2022-11-25T20:52:46.938Z,87.63
2022-11-25T20:55:24.879Z,79.73
2022-11-25T20:57:52.151Z,109.00
2022-11-25T21:00:24.185Z,169.13
2022-11-25T21:02:53.074Z,111.77
2022-11-25T21:05:20.117Z,144.43
2022-11-25T21:07:47.815Z,117.30
2022-11-25T21:10:27.756Z,100.90
2022-11-25T21:12:55.245Z,130.33
2022-11-25T21:15:23.943Z,144.90
2022-11-25T21:17:50.692Z,103.13
2022-11-25T21:20:18.368Z,80.33
2022-11-25T21:22:47.178Z,195.87
2022-11-25T21:25:15.975Z,150.67
2022-11-25T21:27:42.959Z,120.67
2022-11-25T21:30:27.233Z,155.57
2022-11-25T21:32:55.868Z,106.70
2022-11-25T21:35:24.642Z,73.80
2022-11-25T21:37:51.144Z,99.00
2022-11-25T21:40:31.298Z,95.07
2022-11-25T21:42:58.106Z,170.13
2022-11-25T21:45:24.623Z,184.93
2022-11-25T21:47:51.062Z,92.33
2022-11-25T21:50:19.501Z,157.83
2022-11-25T21:52:46.011Z,92.47
2022-11-25T21:55:13.678Z,83.43
2022-11-25T21:57:40.387Z,102.00
2022-11-25T22:00:19.871Z,87.50
2022-11-25T22:02:46.946Z,114.10
2022-11-25T22:05:17.873Z,120.93
2022-11-25T22:07:44.495Z,142.70
2022-11-25T22:10:12.727Z,134.53
2022-11-25T22:12:41.629Z,89.33
2022-11-25T22:15:28.677Z,71.33
2022-11-25T22:17:57.682Z,168.83
2022-11-25T22:20:40.388Z,122.83
2022-11-25T22:23:16.569Z,63.00
2022-11-25T22:25:43.247Z,86.43
2022-11-25T22:28:21.622Z,88.63
2022-11-25T22:30:50.442Z,191.10
2022-11-25T22:33:17.276Z,66.17
2022-11-25T22:35:43.736Z,73.77
2022-11-25T22:38:15.175Z,76.03
2022-11-25T22:40:43.224Z,47.50
2022-11-25T22:43:21.589Z,68.83
2022-11-25T22:45:48.112Z,177.27
2022-11-25T22:48:17.024Z,192.50
2022-11-25T22:50:45.529Z,64.47
2022-11-25T22:53:17.230Z,82.60
2022-11-25T22:55:44.792Z,79.93
2022-11-25T22:58:13.254Z,101.47
2022-11-25T23:00:42.694Z,70.27
2022-11-25T23:03:19.911Z,154.20
2022-11-25T23:05:46.618Z,128.33
2022-11-25T23:08:18.892Z,105.47
2022-11-25T23:10:45.473Z,127.30
2022-11-25T23:13:12.571Z,45.37
2022-11-25T23:15:41.821Z,119.90
2022-11-25T23:18:17.376Z,162.87
2022-11-25T23:20:43.901Z,73.57
2022-11-25T23:23:22.047Z,105.90
2022-11-25T23:25:49.060Z,43.43
2022-11-25T23:28:16.397Z,57.00
2022-11-25T23:30:52.287Z,74.57
2022-11-25T23:33:32.498Z,53.23
2022-11-25T23:36:02.461Z,54.17
2022-11-25T23:38:31.399Z,68.80
2022-11-25T23:40:57.869Z,48.07
2022-11-25T23:43:24.399Z,67.57
2022-11-25T23:45:56.081Z,75.83
2022-11-25T23:48:28.223Z,70.00
2022-11-25T23:50:55.980Z,69.90
2022-11-25T23:53:26.703Z,60.17
2022-11-25T23:55:53.487Z,63.80
2022-11-25T23:58:21.331Z,407.43
